Time;durP1;ratioP1;P1;durP2;ratioP2;P2;SDS_P1;SDS_P2;PMS_P1;PMS_P2;Temp;Humidity;BMP_temperature;BMP_pressure;BME280_temperature;BME280_humidity;BME280_pressure;Samples;Min_cycle;Max_cycle;Signal;HPM_P1;HPM_P2
2021/12/01 00:00:59;;;;;;;13.70;5.50;;;;;;;;;;5031976;28;20099;-82
2021/12/01 00:03:25;;;;;;;15.52;6.40;;;;;;;;;;5033709;28;20052;-81
2021/12/01 00:05:51;;;;;;;17.50;7.10;;;;;;;;;;5051896;28;20086;-80
2021/12/01 00:08:17;;;;;;;13.70;6.03;;;;;;;;;;5033030;28;20044;-80
2021/12/01 00:10:43;;;;;;;13.38;6.70;;;;;;;;;;5033163;28;20040;-81
2021/12/01 00:13:12;;;;;;;14.38;5.85;;;;;;;;;;5050959;28;20080;-79
2021/12/01 00:15:39;;;;;;;12.68;5.35;;;;;;;;;;5032340;28;20102;-80
2021/12/01 00:18:05;;;;;;;16.65;6.88;;;;;;;;;;5032107;28;20072;-81
2021/12/01 00:20:31;;;;;;;14.75;6.22;;;;;;;;;;5049915;28;20462;-81
2021/12/01 00:22:59;;;;;;;17.25;7.68;;;;;;;;;;5032119;28;20481;-83
2021/12/01 00:25:25;;;;;;;16.17;8.00;;;;;;;;;;5031946;28;20068;-81
2021/12/01 00:27:53;;;;;;;19.85;9.30;;;;;;;;;;5045658;28;20403;-81
2021/12/01 00:30:20;;;;;;;20.52;8.23;;;;;;;;;;5028520;28;20051;-78
2021/12/01 00:32:46;;;;;;;24.55;10.07;;;;;;;;;;5028637;28;20043;-78
2021/12/01 00:35:12;;;;;;;25.55;11.40;;;;;;;;;;5046068;28;20106;-79
2021/12/01 00:37:39;;;;;;;22.10;10.98;;;;;;;;;;5028721;28;20079;-81
2021/12/01 00:40:06;;;;;;;23.65;11.43;;;;;;;;;;5045002;28;20086;-83
2021/12/01 00:42:32;;;;;;;26.33;12.20;;;;;;;;;;5046345;28;20036;-83
2021/12/01 00:45:01;;;;;;;27.13;12.90;;;;;;;;;;5028479;28;20033;-79
2021/12/01 00:47:41;;;;;;;27.00;12.00;;;;;;;;;;5045084;28;20127;-83
2021/12/01 00:50:08;;;;;;;27.17;11.30;;;;;;;;;;5046384;28;20037;-82
2021/12/01 00:52:33;;;;;;;26.05;11.93;;;;;;;;;;5044079;28;20041;-79
2021/12/01 00:54:59;;;;;;;30.75;13.80;;;;;;;;;;5045529;28;20040;-79
2021/12/01 00:57:25;;;;;;;28.10;12.68;;;;;;;;;;5045711;28;20134;-81
2021/12/01 00:59:51;;;;;;;23.48;11.63;;;;;;;;;;5027429;28;20055;-80
2021/12/01 01:02:17;;;;;;;27.45;12.95;;;;;;;;;;5045864;28;20044;-80
2021/12/01 01:04:43;;;;;;;27.30;12.90;;;;;;;;;;5044649;28;20102;-82
2021/12/01 01:07:09;;;;;;;23.02;11.82;;;;;;;;;;5044254;28;20500;-79
2021/12/01 01:09:36;;;;;;;26.35;12.23;;;;;;;;;;5026856;28;20040;-80
2021/12/01 01:17:37;;;;;;;24.55;11.75;;;;;;;;;;5045568;28;20156;-82
2021/12/01 01:20:05;;;;;;;23.20;11.52;;;;;;;;;;5027893;28;20037;-79
2021/12/01 01:22:31;;;;;;;23.25;11.48;;;;;;;;;;5043286;28;20048;-80
2021/12/01 01:24:57;;;;;;;25.05;10.63;;;;;;;;;;5045142;28;20043;-79
2021/12/01 01:27:24;;;;;;;22.90;10.93;;;;;;;;;;5027750;28;20044;-81
2021/12/01 01:29:50;;;;;;;24.42;11.13;;;;;;;;;;5026863;28;20063;-79
2021/12/01 01:32:16;;;;;;;20.27;9.82;;;;;;;;;;5028661;28;20389;-77
2021/12/01 01:34:42;;;;;;;21.33;9.73;;;;;;;;;;5027487;28;20043;-80
2021/12/01 01:37:08;;;;;;;19.92;9.88;;;;;;;;;;5043397;28;20476;-80
2021/12/01 01:39:34;;;;;;;20.02;10.48;;;;;;;;;;5045094;28;20033;-80
2021/12/01 01:42:00;;;;;;;21.70;10.32;;;;;;;;;;5027454;28;20489;-79
2021/12/01 01:44:26;;;;;;;15.05;8.82;;;;;;;;;;5027382;28;20083;-80
2021/12/01 01:46:52;;;;;;;17.85;9.55;;;;;;;;;;5044968;28;20066;-75
2021/12/01 01:49:19;;;;;;;18.73;8.38;;;;;;;;;;5026985;28;20033;-77
2021/12/01 01:51:46;;;;;;;19.38;7.97;;;;;;;;;;5027144;28;20174;-78
2021/12/01 01:54:12;;;;;;;18.80;7.18;;;;;;;;;;5028262;28;20036;-77
2021/12/01 01:56:39;;;;;;;14.68;7.18;;;;;;;;;;5026716;28;20453;-78
2021/12/01 01:59:05;;;;;;;12.73;7.03;;;;;;;;;;5043976;28;20119;-81
2021/12/01 02:01:44;;;;;;;13.82;5.97;;;;;;;;;;5044665;28;20044;-81
2021/12/01 02:04:11;;;;;;;12.88;5.72;;;;;;;;;;5045362;28;20049;-78
2021/12/01 02:06:37;;;;;;;9.82;5.75;;;;;;;;;;5042891;28;20036;-82
2021/12/01 02:09:03;;;;;;;10.85;5.53;;;;;;;;;;5026898;28;20412;-79
2021/12/01 02:11:29;;;;;;;10.27;4.93;;;;;;;;;;5027588;28;20045;-79
2021/12/01 02:13:56;;;;;;;10.13;5.68;;;;;;;;;;5042367;28;20033;-80
2021/12/01 02:16:22;;;;;;;11.10;4.97;;;;;;;;;;5043830;28;20036;-80
2021/12/01 02:18:48;;;;;;;9.75;5.22;;;;;;;;;;5043729;28;20147;-81
2021/12/01 02:21:27;;;;;;;9.38;5.03;;;;;;;;;;5025954;28;20044;-80
2021/12/01 02:23:54;;;;;;;8.52;4.65;;;;;;;;;;5042197;28;20054;-78
2021/12/01 02:26:21;;;;;;;8.65;4.10;;;;;;;;;;5043682;28;20131;-78
2021/12/01 02:28:49;;;;;;;12.43;4.28;;;;;;;;;;5044036;28;20037;-80
2021/12/01 02:31:15;;;;;;;9.10;3.50;;;;;;;;;;5025716;28;20037;-80
2021/12/01 02:33:41;;;;;;;8.27;3.50;;;;;;;;;;5043283;28;20037;-79
2021/12/01 02:36:11;;;;;;;4.28;2.70;;;;;;;;;;5027294;28;20045;-81
2021/12/01 02:38:40;;;;;;;5.55;2.97;;;;;;;;;;5042385;28;20087;-81
2021/12/01 02:41:06;;;;;;;5.28;2.85;;;;;;;;;;5042324;28;20037;-79
2021/12/01 02:43:33;;;;;;;6.30;2.53;;;;;;;;;;5027734;28;20044;-79
2021/12/01 02:45:59;;;;;;;3.75;2.30;;;;;;;;;;5025604;28;20036;-80
2021/12/01 02:48:25;;;;;;;4.70;2.28;;;;;;;;;;5042835;28;20062;-77
2021/12/01 02:50:55;;;;;;;4.22;2.42;;;;;;;;;;5043466;28;20049;-79
2021/12/01 02:53:22;;;;;;;8.32;3.15;;;;;;;;;;5042674;28;20051;-79
2021/12/01 02:55:51;;;;;;;4.72;2.25;;;;;;;;;;5042655;28;20040;-78
2021/12/01 02:58:18;;;;;;;4.18;3.00;;;;;;;;;;5042058;28;20036;-80
2021/12/01 03:00:44;;;;;;;4.20;2.10;;;;;;;;;;5026652;28;20047;-78
2021/12/01 03:03:11;;;;;;;2.67;1.40;;;;;;;;;;5043938;28;20534;-78
2021/12/01 03:05:37;;;;;;;3.53;1.98;;;;;;;;;;5026030;28;20098;-80
2021/12/01 03:08:03;;;;;;;3.20;1.77;;;;;;;;;;5026473;28;20479;-78
2021/12/01 03:10:29;;;;;;;4.70;2.22;;;;;;;;;;5044103;28;20055;-81
2021/12/01 03:12:55;;;;;;;2.97;1.80;;;;;;;;;;5025831;28;20116;-81
2021/12/01 03:15:21;;;;;;;4.28;2.05;;;;;;;;;;5043435;28;20044;-79
2021/12/01 03:17:47;;;;;;;2.63;1.73;;;;;;;;;;5027076;28;20049;-80
2021/12/01 03:20:14;;;;;;;3.53;1.70;;;;;;;;;;5025405;28;21013;-80
2021/12/01 03:22:41;;;;;;;2.42;1.73;;;;;;;;;;5043702;28;20506;-77
2021/12/01 03:25:13;;;;;;;3.83;1.77;;;;;;;;;;5043486;28;20029;-78
2021/12/01 03:27:40;;;;;;;2.15;1.50;;;;;;;;;;5042845;28;20481;-79
2021/12/01 03:30:07;;;;;;;2.28;1.75;;;;;;;;;;5025712;28;20029;-78
2021/12/01 03:32:33;;;;;;;2.58;1.45;;;;;;;;;;5043858;28;20144;-80
2021/12/01 03:34:59;;;;;;;2.40;1.35;;;;;;;;;;5025770;28;20065;-80
2021/12/01 03:37:25;;;;;;;1.42;1.13;;;;;;;;;;5042603;28;20041;-81
2021/12/01 03:39:51;;;;;;;3.03;1.50;;;;;;;;;;5044136;28;20118;-79
2021/12/01 03:42:17;;;;;;;2.00;1.20;;;;;;;;;;5024820;28;20045;-80
2021/12/01 03:44:43;;;;;;;2.90;1.20;;;;;;;;;;5026402;28;20037;-76
2021/12/01 03:47:09;;;;;;;2.20;1.27;;;;;;;;;;5026353;28;20040;-78
2021/12/01 03:49:35;;;;;;;3.20;1.27;;;;;;;;;;5043892;28;20037;-78
2021/12/01 03:52:01;;;;;;;2.83;1.15;;;;;;;;;;5025510;28;20769;-80
2021/12/01 03:54:27;;;;;;;2.92;1.17;;;;;;;;;;5042653;28;20036;-79
2021/12/01 03:56:53;;;;;;;5.80;1.23;;;;;;;;;;5044036;28;20043;-78
2021/12/01 03:59:18;;;;;;;2.33;1.42;;;;;;;;;;5042079;28;20041;-79
2021/12/01 04:01:44;;;;;;;3.97;1.20;;;;;;;;;;5026656;28;20044;-75
2021/12/01 04:04:10;;;;;;;6.95;1.92;;;;;;;;;;5030572;28;20150;-78
2021/12/01 04:06:36;;;;;;;3.30;1.70;;;;;;;;;;5045371;28;20064;-77
2021/12/01 04:09:04;;;;;;;3.25;1.33;;;;;;;;;;5030009;28;20472;-79
2021/12/01 04:11:30;;;;;;;5.72;1.80;;;;;;;;;;5047211;28;20044;-78
2021/12/01 04:13:56;;;;;;;5.72;1.88;;;;;;;;;;5028636;28;20068;-78
2021/12/01 04:16:23;;;;;;;5.85;1.88;;;;;;;;;;5046228;28;20043;-78
2021/12/01 04:18:49;;;;;;;3.45;2.05;;;;;;;;;;5029605;28;20045;-80
2021/12/01 04:21:16;;;;;;;4.75;1.73;;;;;;;;;;5027949;28;20075;-76
2021/12/01 04:23:44;;;;;;;3.83;1.67;;;;;;;;;;5046239;28;20040;-76
2021/12/01 04:26:14;;;;;;;10.63;2.90;;;;;;;;;;5030150;28;20083;-78
2021/12/01 04:28:40;;;;;;;3.35;2.10;;;;;;;;;;5045258;28;20344;-77
2021/12/01 04:31:06;;;;;;;3.38;1.60;;;;;;;;;;5045527;28;20503;-77
2021/12/01 04:33:32;;;;;;;3.22;1.75;;;;;;;;;;5046561;28;20455;-78
2021/12/01 04:35:58;;;;;;;3.90;1.63;;;;;;;;;;5046073;28;20032;-76
2021/12/01 04:38:24;;;;;;;3.80;1.65;;;;;;;;;;5028787;28;20052;-79
2021/12/01 04:40:50;;;;;;;1.95;1.40;;;;;;;;;;5044024;28;20119;-77
2021/12/01 04:43:17;;;;;;;2.03;1.40;;;;;;;;;;5029468;28;20040;-79
2021/12/01 04:45:45;;;;;;;3.00;1.40;;;;;;;;;;5044978;28;20048;-78
2021/12/01 04:48:11;;;;;;;1.98;1.20;;;;;;;;;;5027480;28;20047;-78
2021/12/01 04:50:37;;;;;;;2.55;1.35;;;;;;;;;;5046380;28;20045;-77
2021/12/01 04:53:03;;;;;;;3.05;1.42;;;;;;;;;;5028534;28;20029;-77
2021/12/01 04:55:29;;;;;;;3.88;1.65;;;;;;;;;;5044584;28;20404;-77
2021/12/01 04:57:55;;;;;;;5.63;1.42;;;;;;;;;;5029483;28;20040;-76
2021/12/01 05:00:23;;;;;;;2.33;1.42;;;;;;;;;;5044598;28;20045;-75
2021/12/01 05:02:49;;;;;;;2.40;1.73;;;;;;;;;;5044419;28;20037;-79
2021/12/01 05:05:15;;;;;;;2.13;1.60;;;;;;;;;;5045936;28;20086;-77
2021/12/01 05:07:41;;;;;;;2.53;1.30;;;;;;;;;;5027635;28;20508;-78
2021/12/01 05:10:07;;;;;;;3.67;1.40;;;;;;;;;;5027932;28;20472;-79
2021/12/01 05:12:36;;;;;;;2.53;1.35;;;;;;;;;;5044929;28;20028;-76
2021/12/01 05:15:02;;;;;;;1.88;1.15;;;;;;;;;;5044288;28;20032;-79
2021/12/01 05:17:28;;;;;;;1.98;1.10;;;;;;;;;;5027287;28;20455;-76
2021/12/01 05:19:54;;;;;;;1.50;1.00;;;;;;;;;;5045589;28;20047;-76
2021/12/01 05:22:20;;;;;;;1.63;0.98;;;;;;;;;;5027278;28;20045;-75
2021/12/01 05:24:46;;;;;;;1.45;0.85;;;;;;;;;;5043755;28;20451;-76
2021/12/01 05:27:12;;;;;;;2.55;1.25;;;;;;;;;;5045080;28;20056;-77
2021/12/01 05:29:38;;;;;;;1.55;0.80;;;;;;;;;;5025954;28;20040;-77
2021/12/01 05:32:05;;;;;;;2.15;1.00;;;;;;;;;;5027618;28;20033;-76
2021/12/01 05:34:31;;;;;;;2.40;1.20;;;;;;;;;;5026920;28;20487;-77
2021/12/01 05:37:00;;;;;;;2.08;1.08;;;;;;;;;;5045373;28;20032;-77
2021/12/01 05:39:26;;;;;;;3.10;1.10;;;;;;;;;;5027856;28;20393;-77
2021/12/01 05:41:52;;;;;;;1.73;1.10;;;;;;;;;;5026213;28;20090;-76
2021/12/01 05:44:18;;;;;;;1.98;1.15;;;;;;;;;;5045923;28;20033;-77
2021/12/01 05:46:44;;;;;;;2.55;1.30;;;;;;;;;;5038460;28;20043;-76
2021/12/01 05:49:10;;;;;;;2.88;1.42;;;;;;;;;;5038659;28;20044;-77
2021/12/01 05:51:36;;;;;;;1.92;1.52;;;;;;;;;;5038241;28;20056;-77
2021/12/01 05:54:03;;;;;;;2.08;1.50;;;;;;;;;;5055089;28;20102;-75
2021/12/01 05:56:30;;;;;;;2.05;1.60;;;;;;;;;;5038410;28;20040;-76
2021/12/01 05:58:56;;;;;;;2.97;1.88;;;;;;;;;;5038129;28;20048;-75
2021/12/01 06:01:22;;;;;;;2.20;1.52;;;;;;;;;;5038065;28;20532;-76
2021/12/01 06:03:48;;;;;;;1.30;1.15;;;;;;;;;;5037898;28;20044;-74
2021/12/01 06:06:14;;;;;;;2.15;1.42;;;;;;;;;;5052324;28;20118;-74
2021/12/01 06:08:40;;;;;;;2.50;1.60;;;;;;;;;;5034687;28;20488;-74
2021/12/01 06:11:06;;;;;;;2.63;2.05;;;;;;;;;;5033909;28;20040;-74
2021/12/01 06:13:32;;;;;;;2.97;1.73;;;;;;;;;;5052024;28;20041;-74
2021/12/01 06:15:58;;;;;;;1.58;1.40;;;;;;;;;;5037657;28;20535;-75
2021/12/01 06:18:25;;;;;;;4.38;1.98;;;;;;;;;;5054099;28;20045;-76
2021/12/01 06:20:51;;;;;;;2.33;1.45;;;;;;;;;;5055010;28;20055;-75
2021/12/01 06:23:17;;;;;;;2.25;1.77;;;;;;;;;;5054234;28;20048;-74
2021/12/01 06:25:43;;;;;;;2.05;1.35;;;;;;;;;;5054513;28;20550;-74
2021/12/01 06:28:09;;;;;;;2.35;1.30;;;;;;;;;;5054781;28;20044;-77
2021/12/01 06:30:36;;;;;;;2.17;1.13;;;;;;;;;;5054674;28;20041;-75
2021/12/01 06:33:02;;;;;;;2.95;1.00;;;;;;;;;;5054681;28;20075;-74
2021/12/01 06:35:28;;;;;;;1.75;1.00;;;;;;;;;;5054140;28;20040;-76
2021/12/01 06:37:55;;;;;;;1.42;0.95;;;;;;;;;;5037420;28;20040;-75
2021/12/01 06:40:21;;;;;;;1.55;0.80;;;;;;;;;;5037314;28;20044;-75
2021/12/01 06:42:47;;;;;;;1.70;0.90;;;;;;;;;;5037428;28;20131;-75
2021/12/01 06:45:16;;;;;;;1.65;0.93;;;;;;;;;;5053915;28;20094;-76
2021/12/01 06:47:42;;;;;;;1.80;0.88;;;;;;;;;;5053829;28;20040;-73
2021/12/01 06:50:09;;;;;;;1.75;1.02;;;;;;;;;;5053717;28;20035;-75
2021/12/01 06:52:35;;;;;;;2.05;0.98;;;;;;;;;;5037354;28;20032;-75
2021/12/01 06:55:02;;;;;;;1.95;1.10;;;;;;;;;;5053605;28;20044;-74
2021/12/01 06:57:28;;;;;;;1.65;1.20;;;;;;;;;;5053725;28;20048;-76
2021/12/01 06:59:54;;;;;;;1.73;1.17;;;;;;;;;;5037640;28;20079;-73
2021/12/01 07:02:20;;;;;;;1.95;1.27;;;;;;;;;;5037469;28;20072;-74
2021/12/01 07:04:46;;;;;;;1.73;1.40;;;;;;;;;;5037285;28;20430;-75
2021/12/01 07:07:12;;;;;;;1.80;1.20;;;;;;;;;;5053367;28;20069;-73
2021/12/01 07:09:38;;;;;;;1.20;1.10;;;;;;;;;;5053587;28;20048;-74
2021/12/01 07:12:05;;;;;;;1.65;1.23;;;;;;;;;;5036715;28;20086;-75
2021/12/01 07:14:31;;;;;;;1.75;1.25;;;;;;;;;;5053351;28;20078;-74
2021/12/01 07:16:57;;;;;;;1.60;0.95;;;;;;;;;;5053379;28;20079;-75
2021/12/01 07:19:23;;;;;;;1.52;1.30;;;;;;;;;;5053225;28;20105;-74
2021/12/01 07:21:49;;;;;;;1.83;0.90;;;;;;;;;;5053233;28;20044;-75
2021/12/01 07:24:16;;;;;;;2.08;1.10;;;;;;;;;;5053111;28;20043;-75
2021/12/01 07:26:42;;;;;;;1.75;1.15;;;;;;;;;;5036733;28;20045;-75
2021/12/01 07:29:08;;;;;;;1.83;1.20;;;;;;;;;;5037534;28;20447;-75
2021/12/01 07:31:34;;;;;;;1.35;1.02;;;;;;;;;;5034099;28;20397;-76
2021/12/01 07:34:01;;;;;;;1.75;1.15;;;;;;;;;;5041794;28;20094;-75
2021/12/01 07:36:26;;;;;;;1.02;0.80;;;;;;;;;;5046458;28;20034;-72
2021/12/01 07:38:53;;;;;;;1.52;1.25;;;;;;;;;;5029389;28;20115;-77
2021/12/01 07:41:20;;;;;;;1.63;0.82;;;;;;;;;;5028541;28;20519;-75
2021/12/01 07:43:46;;;;;;;2.20;1.10;;;;;;;;;;5046811;28;20396;-74
2021/12/01 07:46:12;;;;;;;1.33;1.00;;;;;;;;;;5029123;28;20045;-74
2021/12/01 07:48:38;;;;;;;1.45;1.00;;;;;;;;;;5045453;28;20488;-73
2021/12/01 07:51:05;;;;;;;1.40;1.02;;;;;;;;;;5046889;28;20086;-73
2021/12/01 07:53:31;;;;;;;2.42;1.50;;;;;;;;;;5029022;28;20037;-74
2021/12/01 07:55:57;;;;;;;2.35;1.30;;;;;;;;;;5028829;28;20040;-74
2021/12/01 07:58:23;;;;;;;2.72;1.27;;;;;;;;;;5046774;28;20033;-74
2021/12/01 08:00:49;;;;;;;2.17;1.25;;;;;;;;;;5043973;28;20102;-73
2021/12/01 08:03:15;;;;;;;1.65;1.30;;;;;;;;;;5029276;28;20480;-74
2021/12/01 08:05:41;;;;;;;2.58;1.40;;;;;;;;;;5044456;28;20089;-73
2021/12/01 08:08:08;;;;;;;3.20;1.30;;;;;;;;;;5046561;28;20044;-75
2021/12/01 08:10:34;;;;;;;2.22;1.40;;;;;;;;;;5028862;28;20505;-73
2021/12/01 08:13:01;;;;;;;2.78;1.67;;;;;;;;;;5044557;28;20032;-73
2021/12/01 08:15:27;;;;;;;3.17;2.15;;;;;;;;;;5028114;28;20089;-75
2021/12/01 08:17:53;;;;;;;2.17;1.80;;;;;;;;;;5044232;28;20037;-72
2021/12/01 08:20:19;;;;;;;1.60;1.50;;;;;;;;;;5030509;28;20041;-75
2021/12/01 08:22:46;;;;;;;3.33;1.58;;;;;;;;;;5029981;28;20040;-75
2021/12/01 08:25:12;;;;;;;4.32;1.95;;;;;;;;;;5028434;28;20245;-72
2021/12/01 08:27:38;;;;;;;4.55;1.80;;;;;;;;;;5025623;28;20489;-74
2021/12/01 08:30:05;;;;;;;2.83;1.95;;;;;;;;;;5046446;28;20039;-76
2021/12/01 08:32:31;;;;;;;5.65;2.38;;;;;;;;;;5044700;28;20052;-72
2021/12/01 08:34:57;;;;;;;5.25;2.20;;;;;;;;;;5044830;28;20041;-74
2021/12/01 08:37:23;;;;;;;3.35;2.03;;;;;;;;;;5046353;28;20037;-74
2021/12/01 08:39:49;;;;;;;4.70;2.03;;;;;;;;;;5045630;28;20047;-73
2021/12/01 08:42:16;;;;;;;1.88;1.50;;;;;;;;;;5045155;28;20041;-74
2021/12/01 08:44:45;;;;;;;3.33;2.00;;;;;;;;;;5043713;28;20037;-74
2021/12/01 08:47:11;;;;;;;2.80;2.10;;;;;;;;;;5027647;28;20055;-74
2021/12/01 08:49:37;;;;;;;3.90;2.15;;;;;;;;;;5045750;28;20039;-75
2021/12/01 08:52:03;;;;;;;4.85;2.40;;;;;;;;;;5043635;28;20033;-73
2021/12/01 08:54:29;;;;;;;2.65;1.35;;;;;;;;;;5045447;28;20036;-76
2021/12/01 08:56:57;;;;;;;5.65;2.15;;;;;;;;;;5045250;28;20043;-71
2021/12/01 08:59:23;;;;;;;3.80;1.67;;;;;;;;;;5043449;28;20044;-74
2021/12/01 09:01:49;;;;;;;3.25;1.77;;;;;;;;;;5028670;28;20512;-75
2021/12/01 09:04:15;;;;;;;3.15;1.55;;;;;;;;;;5044937;28;20060;-71
2021/12/01 09:06:41;;;;;;;3.50;1.75;;;;;;;;;;5029873;28;21420;-76
2021/12/01 09:09:08;;;;;;;3.22;0.98;;;;;;;;;;5026251;28;20032;-73
2021/12/01 09:11:34;;;;;;;2.78;1.33;;;;;;;;;;5027824;28;20044;-74
2021/12/01 09:14:00;;;;;;;8.07;1.38;;;;;;;;;;5043328;28;20037;-74
2021/12/01 09:16:27;;;;;;;5.15;1.30;;;;;;;;;;5043534;28;20036;-75
2021/12/01 09:18:54;;;;;;;5.97;1.55;;;;;;;;;;5044113;28;20408;-75
2021/12/01 09:21:21;;;;;;;8.98;1.33;;;;;;;;;;5045225;28;20128;-72
2021/12/01 09:23:47;;;;;;;3.55;1.42;;;;;;;;;;5026790;28;20044;-74
2021/12/01 09:26:13;;;;;;;9.73;1.33;;;;;;;;;;5046046;28;20029;-75
2021/12/01 09:28:39;;;;;;;5.88;1.30;;;;;;;;;;5027020;28;20044;-73
2021/12/01 09:31:05;;;;;;;6.38;1.35;;;;;;;;;;5028351;28;20101;-74
2021/12/01 09:33:32;;;;;;;6.07;1.38;;;;;;;;;;5026832;28;20469;-74
2021/12/01 09:35:58;;;;;;;7.18;1.30;;;;;;;;;;5027009;28;20185;-73
2021/12/01 09:38:24;;;;;;;6.15;1.10;;;;;;;;;;5036926;28;20119;-73
2021/12/01 09:40:51;;;;;;;4.80;1.45;;;;;;;;;;5017727;28;20051;-74
2021/12/01 09:43:19;;;;;;;4.20;1.00;;;;;;;;;;5033959;28;20045;-73
2021/12/01 09:45:46;;;;;;;7.57;1.33;;;;;;;;;;5017422;28;20040;-73
2021/12/01 09:48:12;;;;;;;5.57;1.10;;;;;;;;;;5034273;28;20131;-77
2021/12/01 09:50:38;;;;;;;6.68;1.00;;;;;;;;;;5017499;28;20085;-74
2021/12/01 09:53:04;;;;;;;5.82;0.90;;;;;;;;;;5034175;28;20044;-73
2021/12/01 09:55:30;;;;;;;4.50;0.60;;;;;;;;;;5034317;28;20778;-73
2021/12/01 09:58:01;;;;;;;4.75;0.70;;;;;;;;;;5033972;28;20041;-75
2021/12/01 10:00:28;;;;;;;5.97;1.05;;;;;;;;;;5034429;28;20037;-76
2021/12/01 10:02:54;;;;;;;3.92;0.90;;;;;;;;;;5017331;28;20095;-74
2021/12/01 10:05:39;;;;;;;7.88;0.82;;;;;;;;;;5034075;28;20049;-73
2021/12/01 10:08:05;;;;;;;3.03;0.68;;;;;;;;;;5016998;28;20405;-73
2021/12/01 10:10:35;;;;;;;4.68;0.60;;;;;;;;;;5033502;28;20049;-75
2021/12/01 10:13:01;;;;;;;5.43;1.30;;;;;;;;;;5033814;28;20048;-73
2021/12/01 10:15:29;;;;;;;5.03;1.10;;;;;;;;;;5017405;28;20036;-72
2021/12/01 10:18:08;;;;;;;7.32;1.27;;;;;;;;;;5017232;28;20567;-75
2021/12/01 10:20:34;;;;;;;3.85;1.15;;;;;;;;;;5017099;28;20041;-74
2021/12/01 10:23:09;;;;;;;5.43;0.90;;;;;;;;;;5033501;28;20610;-76
2021/12/01 10:25:36;;;;;;;2.60;0.57;;;;;;;;;;5033624;28;20056;-76
2021/12/01 10:28:02;;;;;;;5.70;1.02;;;;;;;;;;5017070;28;20123;-71
2021/12/01 10:30:44;;;;;;;6.25;0.68;;;;;;;;;;5033298;28;20439;-77
2021/12/01 10:33:15;;;;;;;4.38;0.63;;;;;;;;;;5017162;28;20045;-75
2021/12/01 10:35:41;;;;;;;3.10;0.60;;;;;;;;;;5017119;28;20127;-74
2021/12/01 10:38:08;;;;;;;5.38;1.10;;;;;;;;;;5033177;28;20037;-75
2021/12/01 10:40:38;;;;;;;4.10;0.50;;;;;;;;;;5016699;28;20041;-75
2021/12/01 10:43:05;;;;;;;6.22;1.13;;;;;;;;;;5016946;28;20036;-75
2021/12/01 10:45:36;;;;;;;3.83;0.73;;;;;;;;;;5016932;28;20120;-74
2021/12/01 10:48:03;;;;;;;8.57;1.40;;;;;;;;;;5033308;28;20040;-75
2021/12/01 10:50:31;;;;;;;8.00;0.90;;;;;;;;;;5016629;28;20041;-74
2021/12/01 10:53:07;;;;;;;6.55;1.13;;;;;;;;;;5016607;28;20485;-75
2021/12/01 10:55:34;;;;;;;5.93;0.95;;;;;;;;;;5032894;28;20037;-75
2021/12/01 10:58:03;;;;;;;10.00;0.95;;;;;;;;;;5016491;28;20128;-76
2021/12/01 11:00:39;;;;;;;5.82;1.00;;;;;;;;;;5032985;28;20485;-75
2021/12/01 11:03:12;;;;;;;4.82;0.80;;;;;;;;;;5033172;28;20106;-78
2021/12/01 11:05:39;;;;;;;7.90;1.27;;;;;;;;;;5032875;28;20448;-78
2021/12/01 11:08:32;;;;;;;11.55;2.35;;;;;;;;;;5032797;28;20396;-75
2021/12/01 11:11:03;;;;;;;5.07;1.00;;;;;;;;;;5011710;28;20136;-74
2021/12/01 11:13:30;;;;;;;6.88;0.95;;;;;;;;;;5016066;28;20124;-74
2021/12/01 11:15:57;;;;;;;7.80;1.15;;;;;;;;;;5032524;28;20048;-74
2021/12/01 11:18:24;;;;;;;4.22;0.90;;;;;;;;;;5015801;28;20132;-75
2021/12/01 11:20:54;;;;;;;6.95;0.88;;;;;;;;;;5032986;28;20098;-75
2021/12/01 11:23:24;;;;;;;2.58;0.70;;;;;;;;;;5032850;28;20049;-74
2021/12/01 11:25:50;;;;;;;2.20;0.50;;;;;;;;;;5015956;28;20044;-76
2021/12/01 11:28:17;;;;;;;4.97;1.02;;;;;;;;;;5016219;28;20045;-76
2021/12/01 11:30:44;;;;;;;7.43;0.90;;;;;;;;;;5016303;28;20045;-78
2021/12/01 11:33:13;;;;;;;6.43;0.82;;;;;;;;;;5016164;28;20424;-76
2021/12/01 11:35:40;;;;;;;5.45;1.10;;;;;;;;;;5032659;28;20072;-77
2021/12/01 11:38:07;;;;;;;9.93;1.45;;;;;;;;;;5016142;28;20036;-76
2021/12/01 11:40:33;;;;;;;6.30;0.90;;;;;;;;;;5032746;28;20037;-78
2021/12/01 11:42:59;;;;;;;4.07;0.93;;;;;;;;;;5016218;28;20051;-74
2021/12/01 11:45:26;;;;;;;6.22;0.85;;;;;;;;;;5032327;28;20072;-77
2021/12/01 11:47:53;;;;;;;6.45;0.88;;;;;;;;;;5016241;28;20488;-77
2021/12/01 11:50:33;;;;;;;8.27;1.63;;;;;;;;;;5032803;28;20036;-75
2021/12/01 11:53:13;;;;;;;4.70;0.90;;;;;;;;;;5016379;28;20107;-77
2021/12/01 11:55:57;;;;;;;5.68;1.08;;;;;;;;;;5016529;28;20098;-76
2021/12/01 11:58:41;;;;;;;10.07;1.77;;;;;;;;;;5032295;28;20106;-75
2021/12/01 12:01:27;;;;;;;10.43;1.95;;;;;;;;;;5015908;28;20435;-76
2021/12/01 12:03:53;;;;;;;9.07;1.58;;;;;;;;;;4999142;28;20386;-77
2021/12/01 12:06:20;;;;;;;8.70;1.60;;;;;;;;;;5032379;28;20101;-76
2021/12/01 12:09:06;;;;;;;9.95;1.92;;;;;;;;;;5015969;28;20048;-75
2021/12/01 12:11:32;;;;;;;5.72;1.35;;;;;;;;;;5032262;28;20560;-76
2021/12/01 12:13:59;;;;;;;9.35;1.20;;;;;;;;;;5033136;28;20123;-78
2021/12/01 12:16:25;;;;;;;7.85;1.88;;;;;;;;;;5016486;28;20469;-76
2021/12/01 12:18:53;;;;;;;8.95;1.92;;;;;;;;;;5015957;28;20144;-77
2021/12/01 12:21:25;;;;;;;8.38;1.10;;;;;;;;;;5032814;28;20053;-77
2021/12/01 12:23:51;;;;;;;5.90;1.48;;;;;;;;;;5019648;28;20049;-77
2021/12/01 12:26:34;;;;;;;8.60;1.30;;;;;;;;;;5019670;28;20045;-78
2021/12/01 12:29:02;;;;;;;8.27;1.30;;;;;;;;;;5020163;28;20045;-77
2021/12/01 12:31:31;;;;;;;9.13;1.33;;;;;;;;;;5036314;28;20045;-78
2021/12/01 12:33:59;;;;;;;8.70;1.45;;;;;;;;;;5036889;28;20119;-79
2021/12/01 12:36:55;;;;;;;12.07;1.35;;;;;;;;;;5019851;28;20041;-77
2021/12/01 12:39:23;;;;;;;13.45;2.00;;;;;;;;;;5000325;28;20060;-77
2021/12/01 12:41:56;;;;;;;11.55;1.63;;;;;;;;;;5036343;28;20102;-79
2021/12/01 12:44:34;;;;;;;16.27;2.25;;;;;;;;;;5036344;28;20047;-77
2021/12/01 12:47:04;;;;;;;13.15;1.95;;;;;;;;;;5019308;28;20083;-79
2021/12/01 12:49:37;;;;;;;8.18;1.60;;;;;;;;;;5019183;28;20049;-75
2021/12/01 12:52:27;;;;;;;6.40;1.30;;;;;;;;;;5035432;28;20078;-78
2021/12/01 12:54:54;;;;;;;9.82;1.58;;;;;;;;;;5019031;28;20036;-77
2021/12/01 12:57:21;;;;;;;12.23;2.00;;;;;;;;;;5035731;28;20134;-78
2021/12/01 12:59:47;;;;;;;8.02;1.30;;;;;;;;;;5018633;28;20087;-79
2021/12/01 13:02:14;;;;;;;8.98;1.15;;;;;;;;;;5035407;28;20081;-79
2021/12/01 13:04:59;;;;;;;6.70;1.15;;;;;;;;;;5035586;28;20048;-77
2021/12/01 13:07:35;;;;;;;5.25;1.45;;;;;;;;;;5018627;28;20047;-75
2021/12/01 13:10:11;;;;;;;3.92;0.70;;;;;;;;;;5018716;28;20497;-76
2021/12/01 13:12:43;;;;;;;7.90;1.30;;;;;;;;;;5034847;28;20071;-75
2021/12/01 13:15:17;;;;;;;8.15;1.23;;;;;;;;;;5035103;28;20037;-81
2021/12/01 13:17:50;;;;;;;10.23;1.02;;;;;;;;;;5018528;28;20579;-79
2021/12/01 13:20:20;;;;;;;3.67;1.00;;;;;;;;;;5034923;28;20041;-78
2021/12/01 13:23:00;;;;;;;6.07;1.02;;;;;;;;;;5018547;28;20045;-77
2021/12/01 13:25:26;;;;;;;9.82;1.50;;;;;;;;;;5035261;28;20048;-74
2021/12/01 13:27:52;;;;;;;4.45;1.05;;;;;;;;;;5002361;28;20033;-79
2021/12/01 13:30:18;;;;;;;7.82;1.40;;;;;;;;;;5018663;28;20037;-78
2021/12/01 13:32:44;;;;;;;6.50;1.00;;;;;;;;;;5034736;28;20489;-78
2021/12/01 13:35:10;;;;;;;5.80;0.93;;;;;;;;;;5018195;28;20048;-78
2021/12/01 13:37:36;;;;;;;4.80;0.93;;;;;;;;;;5018477;28;20110;-81
2021/12/01 13:40:11;;;;;;;5.38;0.88;;;;;;;;;;5018187;28;20041;-77
2021/12/01 13:42:37;;;;;;;4.75;1.17;;;;;;;;;;5035224;28;20059;-78
2021/12/01 13:45:03;;;;;;;9.93;1.58;;;;;;;;;;5018779;28;20081;-78
2021/12/01 13:47:31;;;;;;;8.65;1.63;;;;;;;;;;5018570;28;20493;-78
2021/12/01 13:49:59;;;;;;;13.20;1.50;;;;;;;;;;5034716;28;20091;-77
2021/12/01 13:52:36;;;;;;;6.47;1.35;;;;;;;;;;5034496;28;20076;-75
2021/12/01 13:55:21;;;;;;;9.32;1.48;;;;;;;;;;5018162;28;20110;-75
2021/12/01 13:57:48;;;;;;;10.40;1.40;;;;;;;;;;5034230;28;20063;-78
2021/12/01 14:00:16;;;;;;;5.15;0.85;;;;;;;;;;5018035;28;20083;-76
2021/12/01 14:02:42;;;;;;;6.20;1.92;;;;;;;;;;5017634;28;20041;-76
2021/12/01 14:05:09;;;;;;;5.60;1.13;;;;;;;;;;5034215;28;20606;-75
2021/12/01 14:07:41;;;;;;;4.88;1.20;;;;;;;;;;5017880;28;20106;-75
2021/12/01 14:10:09;;;;;;;3.75;0.90;;;;;;;;;;5018002;28;20107;-79
2021/12/01 14:12:45;;;;;;;10.75;1.98;;;;;;;;;;5033982;28;20048;-79
2021/12/01 14:15:11;;;;;;;4.85;0.90;;;;;;;;;;5018137;28;20037;-78
2021/12/01 14:17:38;;;;;;;2.88;0.82;;;;;;;;;;5017812;28;20049;-81
2021/12/01 14:20:05;;;;;;;5.20;0.90;;;;;;;;;;5018701;28;20520;-77
2021/12/01 14:22:32;;;;;;;4.43;0.93;;;;;;;;;;5034509;28;20108;-80
2021/12/01 14:25:02;;;;;;;11.07;1.50;;;;;;;;;;5034636;28;20037;-80
2021/12/01 14:27:32;;;;;;;8.07;0.90;;;;;;;;;;5034197;28;20123;-78
2021/12/01 14:29:59;;;;;;;3.75;1.33;;;;;;;;;;5034400;28;20098;-78
2021/12/01 14:32:26;;;;;;;7.65;0.95;;;;;;;;;;5034006;28;20049;-79
2021/12/01 14:34:52;;;;;;;4.63;1.35;;;;;;;;;;5034385;28;20382;-77
2021/12/01 14:37:18;;;;;;;9.18;1.35;;;;;;;;;;5017506;28;20044;-78
2021/12/01 14:39:45;;;;;;;5.43;0.75;;;;;;;;;;5017228;28;20048;-77
2021/12/01 14:42:12;;;;;;;9.98;1.10;;;;;;;;;;5017167;28;20044;-78
2021/12/01 14:44:39;;;;;;;4.82;1.13;;;;;;;;;;5033500;28;20040;-76
2021/12/01 14:47:06;;;;;;;7.05;1.10;;;;;;;;;;5033778;28;20607;-77
2021/12/01 14:49:46;;;;;;;5.22;0.95;;;;;;;;;;5017153;28;20111;-80